createdAt,value
2022-10-02T00:00:02.719Z,62.2
2022-10-02T00:01:04.841Z,62.2
2022-10-02T00:02:06.920Z,62.3
2022-10-02T00:03:09.035Z,62.5
2022-10-02T00:04:11.075Z,62.6
2022-10-02T00:05:13.016Z,62.9
2022-10-02T00:08:05.076Z,62
2022-10-02T00:09:07.156Z,61.9
2022-10-02T00:10:09.336Z,61.6
2022-10-02T00:11:11.841Z,61.1
2022-10-02T00:12:13.916Z,62
2022-10-02T00:13:16.816Z,62.4
2022-10-02T00:14:18.916Z,62.5
2022-10-02T00:15:21.221Z,62.6
2022-10-02T00:16:22.514Z,62.6
2022-10-02T00:17:24.997Z,62.7
2022-10-02T00:18:27.176Z,62.5
2022-10-02T00:19:29.496Z,62.2
2022-10-02T00:20:31.836Z,62.3
2022-10-02T00:21:33.818Z,62.5
2022-10-02T00:22:35.836Z,62.6
2022-10-02T00:23:37.816Z,62.6
2022-10-02T00:24:40.804Z,62.4
2022-10-02T00:25:44.036Z,62.6
2022-10-02T00:26:46.976Z,62.8
2022-10-02T00:27:49.024Z,62.7
2022-10-02T00:28:51.436Z,62.9
2022-10-02T00:29:54.396Z,62.6
2022-10-02T00:30:56.748Z,62.7
2022-10-02T00:31:59.304Z,62.9
2022-10-02T00:33:02.117Z,63
2022-10-02T00:34:04.438Z,63.2
2022-10-02T00:35:07.116Z,63.2
2022-10-02T00:36:08.876Z,62.8
2022-10-02T00:37:10.858Z,63.4
2022-10-02T00:38:13.098Z,63.7
2022-10-02T00:39:15.465Z,63.7
2022-10-02T00:40:17.616Z,63.5
2022-10-02T00:41:20.076Z,63.7
2022-10-02T00:42:21.916Z,63.6
2022-10-02T00:43:24.336Z,63.6
2022-10-02T00:44:26.944Z,63.5
2022-10-02T00:45:29.366Z,63
2022-10-02T00:46:32.367Z,62.5
2022-10-02T00:47:35.474Z,62.1
2022-10-02T00:48:37.915Z,62.3
2022-10-02T00:49:39.996Z,62.4
2022-10-02T00:50:41.899Z,62.3
2022-10-02T00:51:43.874Z,62.5
2022-10-02T00:52:46.138Z,62.2
2022-10-02T00:53:47.977Z,62.1
2022-10-02T00:54:50.658Z,62
2022-10-02T00:55:53.197Z,62.2
2022-10-02T00:56:56.708Z,62.5
2022-10-02T00:57:58.569Z,62.4
2022-10-02T00:59:01.239Z,62.4
2022-10-02T01:00:03.637Z,62.2
2022-10-02T01:04:07.042Z,61.9
2022-10-02T01:05:08.301Z,62
2022-10-02T01:06:09.796Z,61.6
2022-10-02T01:07:12.006Z,61.6
2022-10-02T01:08:14.116Z,61.9
2022-10-02T01:09:15.918Z,62
2022-10-02T01:10:18.117Z,61.6
2022-10-02T01:11:19.758Z,61.7
2022-10-02T01:12:21.957Z,61.3
2022-10-02T01:13:24.496Z,61.8
2022-10-02T01:14:27.136Z,61.7
2022-10-02T01:15:29.057Z,61.7
2022-10-02T01:16:31.101Z,61.8
2022-10-02T01:17:32.756Z,62.2
2022-10-02T01:18:34.885Z,62.3
2022-10-02T01:19:37.064Z,62.1
2022-10-02T01:20:40.017Z,62
2022-10-02T01:21:41.716Z,62
2022-10-02T01:22:43.716Z,61.9
2022-10-02T01:23:45.862Z,62.1
2022-10-02T01:24:48.396Z,62.1
2022-10-02T01:25:50.776Z,62.1
2022-10-02T01:26:52.594Z,62.2
2022-10-02T01:27:54.667Z,62.1
2022-10-02T01:28:57.324Z,62.1
2022-10-02T01:29:59.916Z,62.2
2022-10-02T01:31:02.136Z,62.2
2022-10-02T01:32:04.430Z,62.5
2022-10-02T01:33:07.055Z,62.5
2022-10-02T01:34:08.717Z,62.4
2022-10-02T01:35:10.822Z,62.5
2022-10-02T01:36:12.896Z,62.4
2022-10-02T01:37:15.046Z,62.7
2022-10-02T01:38:17.030Z,62.3
2022-10-02T01:39:18.677Z,62.5
2022-10-02T01:40:20.777Z,62.7
2022-10-02T01:41:23.157Z,62.8
2022-10-02T01:42:25.139Z,63
2022-10-02T01:43:26.924Z,62.9
2022-10-02T01:44:28.704Z,62.7
2022-10-02T01:45:31.529Z,62.1
2022-10-02T01:46:34.170Z,62.2
2022-10-02T01:47:35.916Z,62.2
2022-10-02T01:48:37.776Z,62
2022-10-02T01:49:39.720Z,62.1
2022-10-02T01:50:41.890Z,62.2
2022-10-02T01:51:44.816Z,62.3
2022-10-02T01:52:46.979Z,62
2022-10-02T01:53:49.288Z,61.8
2022-10-02T01:54:51.596Z,61.8
2022-10-02T01:55:53.797Z,61.8
2022-10-02T01:56:55.636Z,62
2022-10-02T01:57:57.946Z,62.1
2022-10-02T01:59:00.645Z,61.9
2022-10-02T02:00:03.015Z,61.9
2022-10-02T02:01:05.059Z,62.1
2022-10-02T02:02:06.715Z,61.8
2022-10-02T02:03:08.846Z,61.5
2022-10-02T02:04:10.896Z,61.7
2022-10-02T02:05:13.061Z,61.7
2022-10-02T02:06:15.139Z,61.8
2022-10-02T02:07:17.405Z,61.8
2022-10-02T02:08:20.216Z,61.9
2022-10-02T02:09:21.937Z,62
2022-10-02T02:10:24.464Z,62.2
2022-10-02T02:11:26.896Z,62.5
2022-10-02T02:12:29.272Z,62.6
2022-10-02T02:13:32.536Z,62.7
2022-10-02T02:14:35.056Z,62.6
2022-10-02T02:15:37.019Z,62.7
2022-10-02T02:16:39.473Z,62.8
2022-10-02T02:17:40.965Z,62.7
2022-10-02T02:18:43.154Z,62.5
2022-10-02T02:19:45.697Z,62.2
2022-10-02T02:20:47.976Z,62.1
2022-10-02T02:21:49.393Z,61.8
2022-10-02T02:22:52.016Z,61.7
2022-10-02T02:23:53.756Z,61.3
2022-10-02T02:24:55.975Z,61.4
2022-10-02T02:25:57.611Z,61.4
2022-10-02T02:26:59.964Z,61.5
2022-10-02T02:28:01.726Z,61.4
2022-10-02T02:29:03.817Z,61.3
2022-10-02T02:30:06.377Z,61.5
2022-10-02T02:31:09.280Z,61.5
2022-10-02T02:32:11.098Z,61.2
2022-10-02T02:33:12.877Z,61.2
2022-10-02T02:34:17.297Z,61.5
2022-10-02T02:35:18.857Z,61.7
2022-10-02T02:36:21.256Z,61.7
2022-10-02T02:37:24.286Z,61.5
2022-10-02T02:38:25.736Z,61.5
2022-10-02T02:39:27.685Z,61.5
2022-10-02T02:40:29.777Z,61.5
2022-10-02T02:41:31.950Z,61.8
2022-10-02T02:42:33.696Z,62
2022-10-02T02:43:35.996Z,61.9
2022-10-02T02:44:37.966Z,61.8
2022-10-02T02:45:39.846Z,61.8
2022-10-02T02:46:41.917Z,61.5
2022-10-02T02:47:43.785Z,61.7
2022-10-02T02:48:46.176Z,62
2022-10-02T02:49:48.138Z,62.2
2022-10-02T02:50:49.900Z,62.2
2022-10-02T02:51:51.876Z,62.2
2022-10-02T02:52:53.701Z,62.1
2022-10-02T02:53:56.229Z,61.7
2022-10-02T02:54:57.756Z,61.6
2022-10-02T02:55:59.977Z,61.6
2022-10-02T02:57:02.271Z,61.8
2022-10-02T02:58:04.671Z,62
2022-10-02T02:59:06.836Z,62.2
2022-10-02T03:00:08.918Z,62.2
2022-10-02T03:01:11.237Z,62.3
2022-10-02T03:02:14.273Z,62.4
2022-10-02T03:03:17.066Z,62.3
2022-10-02T03:04:19.036Z,62.3
2022-10-02T03:05:20.965Z,62.1
2022-10-02T03:06:23.279Z,61.8
2022-10-02T03:07:25.297Z,61.6
2022-10-02T03:08:27.181Z,61.5
2022-10-02T03:09:29.496Z,61.3
2022-10-02T03:10:32.138Z,61.5
2022-10-02T03:11:34.117Z,61.6
2022-10-02T03:12:36.025Z,61.5
2022-10-02T03:13:38.037Z,61.4
2022-10-02T03:14:40.064Z,61.5
2022-10-02T03:15:42.180Z,61.6
2022-10-02T03:16:43.907Z,61.5
2022-10-02T03:17:45.647Z,61.7
2022-10-02T03:18:48.121Z,61.8
2022-10-02T03:19:49.816Z,62.3
2022-10-02T03:20:52.059Z,62.4
2022-10-02T03:21:54.119Z,62.7
2022-10-02T03:22:55.897Z,62.7
2022-10-02T03:23:58.579Z,62.4
2022-10-02T03:25:01.172Z,62.2
2022-10-02T03:26:03.076Z,62.1
2022-10-02T03:27:07.836Z,62.2
2022-10-02T03:28:10.487Z,62.1
2022-10-02T03:29:13.416Z,62.2
2022-10-02T03:30:16.115Z,62.1
2022-10-02T03:31:18.171Z,62.1
2022-10-02T03:32:20.136Z,62.1
2022-10-02T03:33:21.937Z,62
2022-10-02T03:34:24.277Z,62.1
2022-10-02T03:35:26.238Z,62.1
2022-10-02T03:36:28.116Z,62.1
2022-10-02T03:37:29.376Z,62.1
2022-10-02T03:38:30.784Z,62
2022-10-02T03:39:32.820Z,62.2
2022-10-02T03:40:34.816Z,62.1
2022-10-02T03:41:36.937Z,62
2022-10-02T03:42:38.977Z,61.9
2022-10-02T03:43:41.084Z,62
2022-10-02T03:44:42.918Z,61.9
2022-10-02T03:45:51.212Z,61.8
2022-10-02T03:46:46.972Z,62
2022-10-02T03:47:48.896Z,62
2022-10-02T03:48:50.917Z,61.9
2022-10-02T03:49:52.657Z,61.7
2022-10-02T03:50:55.296Z,61.6
2022-10-02T03:51:56.786Z,61.7
2022-10-02T03:52:58.609Z,61.9
2022-10-02T03:54:00.888Z,62.1
2022-10-02T03:55:02.762Z,62.2
2022-10-02T03:56:04.725Z,62.2
2022-10-02T03:57:06.926Z,62.3
2022-10-02T03:58:09.679Z,62.4
2022-10-02T03:59:11.897Z,62.3
2022-10-02T04:00:14.916Z,62.1
2022-10-02T04:01:17.370Z,62
2022-10-02T04:02:18.897Z,62
2022-10-02T04:03:20.860Z,62.1
2022-10-02T04:04:23.098Z,61.9
2022-10-02T04:05:25.137Z,62.1
2022-10-02T04:06:26.897Z,62.1
2022-10-02T04:07:28.919Z,62
2022-10-02T04:08:30.979Z,62.1
2022-10-02T04:09:33.296Z,62
2022-10-02T04:10:35.920Z,62
2022-10-02T04:11:37.797Z,62.3
2022-10-02T04:12:40.196Z,62.7
2022-10-02T04:13:41.717Z,62.8
2022-10-02T04:14:44.057Z,62.8
2022-10-02T04:15:45.759Z,62.8
2022-10-02T04:16:48.258Z,62.9
2022-10-02T04:17:49.980Z,62.9
2022-10-02T04:18:52.125Z,62.7
2022-10-02T04:19:54.156Z,62.8
2022-10-02T04:20:55.796Z,62.8
2022-10-02T04:21:57.916Z,62.8
2022-10-02T04:23:00.345Z,63.1
2022-10-02T04:24:02.197Z,63.2
2022-10-02T04:25:04.097Z,63.5
2022-10-02T04:26:06.330Z,63.3
2022-10-02T04:27:08.036Z,63.2
2022-10-02T04:28:10.334Z,62.9
2022-10-02T04:29:13.556Z,62.5
2022-10-02T04:30:15.757Z,62.8
2022-10-02T04:31:18.063Z,62.4
2022-10-02T04:32:19.898Z,63
2022-10-02T04:33:21.777Z,63.3
2022-10-02T04:34:23.865Z,63.1
2022-10-02T04:35:25.796Z,63
2022-10-02T04:36:27.804Z,62.5
2022-10-02T04:37:29.876Z,62.7
2022-10-02T04:38:31.837Z,62.5
2022-10-02T04:39:34.078Z,62.3
2022-10-02T04:40:35.817Z,62.3
2022-10-02T04:41:37.939Z,61.9
2022-10-02T04:42:39.684Z,62.1
2022-10-02T04:43:41.857Z,62.1
2022-10-02T04:44:44.168Z,62.5
2022-10-02T04:45:46.018Z,63.2
2022-10-02T04:46:47.937Z,63.4
2022-10-02T04:47:49.889Z,63.5
2022-10-02T04:48:51.956Z,63.4
2022-10-02T04:49:53.696Z,62.9
2022-10-02T04:50:55.976Z,63.3
2022-10-02T04:51:57.891Z,63.4
2022-10-02T04:53:00.285Z,63.3
2022-10-02T04:54:02.177Z,63.3
2022-10-02T04:55:04.038Z,63.1
2022-10-02T04:56:05.917Z,62.9
2022-10-02T04:57:08.064Z,62.8
2022-10-02T04:58:10.139Z,63
2022-10-02T04:59:12.938Z,62.8
2022-10-02T05:00:15.404Z,63.2
2022-10-02T05:01:18.859Z,63.2
2022-10-02T05:02:21.028Z,63
2022-10-02T05:03:23.476Z,63
2022-10-02T05:04:26.057Z,62.8
2022-10-02T05:05:28.231Z,62.7
2022-10-02T05:06:30.285Z,62.7
2022-10-02T05:07:33.077Z,63
2022-10-02T05:08:34.916Z,63.2
2022-10-02T05:09:36.916Z,63.1
2022-10-02T05:10:42.337Z,63.1
2022-10-02T05:11:44.976Z,63.1
2022-10-02T05:12:47.015Z,62.8
2022-10-02T05:13:49.609Z,62.8
2022-10-02T05:14:51.976Z,62.8
2022-10-02T05:15:54.038Z,62.6
2022-10-02T05:16:56.136Z,62.7
2022-10-02T05:17:58.377Z,62.7
2022-10-02T05:19:00.807Z,63
2022-10-02T05:20:03.035Z,63
2022-10-02T05:21:05.085Z,62.7
2022-10-02T05:22:07.077Z,62.8
2022-10-02T05:23:09.497Z,62.8
2022-10-02T05:24:11.984Z,62.9
2022-10-02T05:25:14.208Z,62.6
2022-10-02T05:26:16.196Z,62.8
2022-10-02T05:27:18.156Z,62.9
2022-10-02T05:28:20.872Z,62.8
2022-10-02T05:29:23.510Z,62.6
2022-10-02T05:30:26.356Z,62.4
2022-10-02T05:31:29.078Z,62.5
2022-10-02T05:32:31.420Z,62.2
2022-10-02T05:33:34.506Z,61.9
2022-10-02T05:34:37.148Z,61.8
2022-10-02T05:35:40.417Z,61.8
2022-10-02T05:36:43.536Z,62
2022-10-02T05:37:46.297Z,62
2022-10-02T05:38:48.837Z,62.2
2022-10-02T05:39:51.176Z,62.4
2022-10-02T05:40:52.956Z,62.2
2022-10-02T05:41:55.244Z,62.1
2022-10-02T05:42:57.117Z,62.2
2022-10-02T05:43:58.979Z,62.2
2022-10-02T05:45:00.896Z,62
2022-10-02T05:46:02.896Z,62.4
2022-10-02T05:47:05.043Z,62.1
2022-10-02T05:48:06.866Z,61.9
2022-10-02T05:49:09.802Z,62.2
2022-10-02T05:50:12.356Z,62.2
2022-10-02T05:51:13.961Z,61.8
2022-10-02T05:52:16.176Z,61.5
2022-10-02T05:53:18.219Z,61.5
2022-10-02T05:54:20.354Z,62
2022-10-02T05:55:22.136Z,62.1
2022-10-02T05:56:24.019Z,62.1
2022-10-02T05:57:26.396Z,62.2
2022-10-02T05:58:29.337Z,62.4
2022-10-02T05:59:31.383Z,62.5
2022-10-02T06:00:33.696Z,62.4
2022-10-02T06:01:36.576Z,62.5
2022-10-02T06:02:39.739Z,62.4
2022-10-02T06:03:42.296Z,62.6
2022-10-02T06:04:44.430Z,62.7
2022-10-02T06:05:47.838Z,62.7
2022-10-02T06:06:50.756Z,62.1
2022-10-02T06:07:53.492Z,61.6
2022-10-02T06:08:56.136Z,61.7
2022-10-02T06:09:58.307Z,61.8
2022-10-02T06:11:00.656Z,61.8
2022-10-02T06:12:03.437Z,61.9
2022-10-02T06:13:06.029Z,62.3
2022-10-02T06:14:08.816Z,62.4
2022-10-02T06:15:11.019Z,62.2
2022-10-02T06:16:13.557Z,61.9
2022-10-02T06:17:15.997Z,62.1
2022-10-02T06:18:18.030Z,62.5
2022-10-02T06:19:20.397Z,62
2022-10-02T06:20:22.016Z,61.3
2022-10-02T06:21:24.178Z,61.3
2022-10-02T06:22:26.420Z,61.6
2022-10-02T06:23:29.276Z,61.9
2022-10-02T06:24:31.309Z,61.8
2022-10-02T06:25:33.578Z,61.9
2022-10-02T06:26:36.461Z,61.8
2022-10-02T06:27:38.137Z,61.9
2022-10-02T06:28:40.656Z,62.1
2022-10-02T06:29:43.355Z,61.3
2022-10-02T06:30:45.304Z,61.8
2022-10-02T06:31:47.011Z,62.3
2022-10-02T06:32:49.676Z,62.3
2022-10-02T06:33:53.126Z,62.1
2022-10-02T06:34:55.436Z,61.9
2022-10-02T06:35:58.845Z,61.6
2022-10-02T06:37:01.336Z,61.2
2022-10-02T06:38:03.276Z,61.1
2022-10-02T06:39:05.796Z,60.9
2022-10-02T06:40:08.657Z,60.4
2022-10-02T06:41:11.257Z,60.6
2022-10-02T06:42:13.376Z,60.8
2022-10-02T06:43:16.398Z,61.2
2022-10-02T06:44:18.104Z,61.1
2022-10-02T06:45:20.364Z,61.1
2022-10-02T06:46:22.839Z,61.3
2022-10-02T06:47:25.177Z,60.9
2022-10-02T06:48:27.137Z,61.2
2022-10-02T06:49:29.256Z,60.6
2022-10-02T06:50:31.336Z,60.1
2022-10-02T06:51:32.864Z,60.4
2022-10-02T06:52:38.092Z,59.7
2022-10-02T06:53:37.158Z,59.9
2022-10-02T06:54:39.478Z,60
2022-10-02T06:55:41.644Z,60.4
2022-10-02T06:56:44.403Z,60.2
2022-10-02T06:57:46.196Z,59.7
2022-10-02T06:58:48.512Z,59.7
2022-10-02T06:59:51.476Z,59.7
2022-10-02T07:00:55.129Z,59.8
2022-10-02T07:01:57.644Z,59.6
2022-10-02T07:02:58.816Z,59.5
2022-10-02T07:04:01.197Z,58.8
2022-10-02T07:05:02.698Z,58.5
2022-10-02T07:06:05.718Z,57.7
2022-10-02T07:07:08.097Z,57.9
2022-10-02T07:08:10.249Z,58.5
2022-10-02T07:09:12.216Z,59.2
2022-10-02T07:10:14.397Z,59.9
2022-10-02T07:11:17.018Z,60.1
2022-10-02T07:12:19.337Z,60.5
2022-10-02T07:13:21.016Z,60.1
2022-10-02T07:14:23.416Z,58.7
2022-10-02T07:15:26.325Z,57.8
2022-10-02T07:16:28.396Z,58.2
2022-10-02T07:17:30.338Z,58.5
2022-10-02T07:18:32.496Z,57
2022-10-02T07:19:35.481Z,57.6
2022-10-02T07:20:38.505Z,58.3
2022-10-02T07:21:46.251Z,58.3
2022-10-02T07:22:50.978Z,57.9
2022-10-02T07:23:52.884Z,58.3
2022-10-02T07:24:55.277Z,58.4
2022-10-02T07:25:57.522Z,57.8
2022-10-02T07:27:00.556Z,58.4
2022-10-02T07:28:04.029Z,58.2
2022-10-02T07:29:06.292Z,58
2022-10-02T07:30:08.657Z,57.5
2022-10-02T07:31:11.399Z,57.7
2022-10-02T07:32:14.957Z,58.5
2022-10-02T07:33:17.829Z,59
2022-10-02T07:34:20.348Z,58.7
2022-10-02T07:35:22.345Z,59.8
2022-10-02T07:36:24.078Z,59.2
2022-10-02T07:37:26.404Z,59.6
2022-10-02T07:38:29.197Z,59.2
2022-10-02T07:39:32.032Z,59.6
2022-10-02T07:40:33.980Z,59.6
2022-10-02T07:41:35.709Z,59.3
2022-10-02T07:42:37.996Z,57.9
2022-10-02T07:43:39.936Z,57.4
2022-10-02T07:44:42.276Z,56.8
2022-10-02T07:45:44.291Z,57.1
2022-10-02T07:46:46.437Z,57.5
2022-10-02T07:47:48.916Z,57.3
2022-10-02T07:48:51.180Z,57.2
2022-10-02T07:49:53.238Z,57.4
2022-10-02T07:50:55.236Z,58
2022-10-02T07:51:58.165Z,58.2
2022-10-02T07:53:00.417Z,57.4
2022-10-02T07:54:02.797Z,58
2022-10-02T07:55:05.716Z,58.4
2022-10-02T07:59:37.717Z,58.1
2022-10-02T08:00:41.528Z,57.2
2022-10-02T08:01:44.580Z,57.6
2022-10-02T08:02:47.449Z,57.1
2022-10-02T08:03:49.679Z,57.7
2022-10-02T08:04:52.461Z,57.3
2022-10-02T08:05:54.761Z,57
2022-10-02T08:06:57.104Z,57.4
2022-10-02T08:07:59.758Z,57.6
2022-10-02T08:09:02.900Z,57.8
2022-10-02T08:10:05.465Z,57
2022-10-02T08:11:09.086Z,57
2022-10-02T08:12:11.834Z,56.7
2022-10-02T08:13:14.919Z,56.8
2022-10-02T08:14:17.260Z,57.2
2022-10-02T08:15:19.947Z,57.6
2022-10-02T08:16:22.881Z,56.4
2022-10-02T08:17:25.177Z,56.5
2022-10-02T08:18:34.457Z,57.1
2022-10-02T08:19:30.179Z,56.7
2022-10-02T08:20:32.649Z,57.8
2022-10-02T08:21:35.889Z,58.8
2022-10-02T08:22:38.866Z,58.9
2022-10-02T08:23:42.178Z,57.7
2022-10-02T08:24:44.301Z,57.1
2022-10-02T08:25:46.324Z,56.9
2022-10-02T08:26:48.598Z,56.8
2022-10-02T08:27:51.416Z,57.1
2022-10-02T08:28:53.389Z,56.5
2022-10-02T08:29:55.916Z,56.6
2022-10-02T08:30:58.614Z,57.1
2022-10-02T08:32:01.574Z,57.3
2022-10-02T08:33:04.752Z,57.1
2022-10-02T08:34:07.416Z,56.9
2022-10-02T08:35:09.492Z,55.9
2022-10-02T08:36:12.905Z,56.5
2022-10-02T08:37:15.631Z,57.3
2022-10-02T08:38:18.791Z,57
2022-10-02T08:39:21.897Z,56.9
2022-10-02T08:40:24.555Z,56.6
2022-10-02T08:41:27.443Z,57
2022-10-02T08:42:30.386Z,57.1
2022-10-02T08:43:32.034Z,54.8
2022-10-02T08:44:36.419Z,55.3
2022-10-02T08:45:38.355Z,55
2022-10-02T08:46:40.291Z,55.8
2022-10-02T08:47:42.652Z,55.1
2022-10-02T08:48:45.451Z,55.3
2022-10-02T08:49:47.652Z,55.3
2022-10-02T08:50:50.525Z,55.4
2022-10-02T08:51:53.536Z,55.1
2022-10-02T08:52:56.895Z,56.2
2022-10-02T08:53:59.632Z,55.5
2022-10-02T08:55:02.152Z,55.6
2022-10-02T08:56:03.979Z,56.2
2022-10-02T08:57:06.793Z,55.4
2022-10-02T08:58:09.771Z,55.7
2022-10-02T08:59:12.233Z,55.4
2022-10-02T09:00:14.660Z,54.6
2022-10-02T09:01:18.051Z,54.1
2022-10-02T09:02:20.780Z,54.8
2022-10-02T09:03:23.313Z,53.4
2022-10-02T09:04:25.479Z,53.8
2022-10-02T09:05:28.591Z,53.8
2022-10-02T09:06:31.622Z,53.2
2022-10-02T09:07:34.904Z,54.4
2022-10-02T09:08:37.092Z,54.6
2022-10-02T09:09:39.470Z,55
2022-10-02T09:10:42.835Z,53.7
2022-10-02T09:11:46.411Z,52.7
2022-10-02T09:12:48.871Z,51.7
2022-10-02T09:13:51.133Z,52.8
2022-10-02T09:14:58.689Z,53.1
2022-10-02T09:15:57.297Z,52.5
2022-10-02T09:16:59.392Z,52
2022-10-02T09:18:01.533Z,49.9
2022-10-02T09:19:04.739Z,49.9
2022-10-02T09:20:08.171Z,51.4
2022-10-02T09:21:11.638Z,51.9
2022-10-02T09:22:13.112Z,51.8
2022-10-02T09:23:15.354Z,51.6
2022-10-02T09:24:17.924Z,52.3
2022-10-02T09:25:20.750Z,50.9
2022-10-02T09:26:23.771Z,52
2022-10-02T09:27:26.191Z,50
2022-10-02T09:28:28.910Z,49.5
2022-10-02T09:29:32.396Z,51
2022-10-02T09:30:35.492Z,50
2022-10-02T09:31:38.921Z,48.5
2022-10-02T09:32:41.552Z,48.7
2022-10-02T09:33:44.691Z,49.7
2022-10-02T09:34:48.040Z,49.5
2022-10-02T09:35:50.332Z,48.7
2022-10-02T09:36:51.971Z,48.9
2022-10-02T09:37:53.712Z,49
2022-10-02T09:38:55.935Z,50.1
2022-10-02T09:39:58.251Z,50.7
2022-10-02T09:41:00.081Z,51.6
2022-10-02T09:42:02.499Z,51.4
2022-10-02T09:43:05.875Z,53
2022-10-02T09:44:08.471Z,51.1
2022-10-02T09:45:11.051Z,51.6
2022-10-02T09:46:13.775Z,51.8
2022-10-02T09:47:16.271Z,51.7
2022-10-02T09:48:17.902Z,51.5
2022-10-02T09:49:20.251Z,51.2
2022-10-02T09:50:22.691Z,49.7
2022-10-02T09:51:25.252Z,48.8
2022-10-02T09:52:27.393Z,49.9
2022-10-02T09:53:29.560Z,50.6
2022-10-02T09:54:32.336Z,51.5
2022-10-02T09:55:34.573Z,51.6
2022-10-02T09:56:38.154Z,51.9
2022-10-02T09:57:40.993Z,51.2
2022-10-02T09:58:43.897Z,51.4
2022-10-02T09:59:46.595Z,52.3
2022-10-02T10:00:49.353Z,51.4
2022-10-02T10:01:51.322Z,51
2022-10-02T10:02:53.632Z,51.5
2022-10-02T10:03:56.712Z,51.5
2022-10-02T10:05:05.864Z,52.6
2022-10-02T10:06:01.814Z,51.9
2022-10-02T10:07:04.642Z,52.7
2022-10-02T10:08:07.261Z,53
2022-10-02T10:09:09.554Z,53
2022-10-02T10:10:12.903Z,51.8
2022-10-02T10:11:15.732Z,52.5
2022-10-02T10:12:18.094Z,52.1
2022-10-02T10:13:20.353Z,51.8
2022-10-02T10:14:22.811Z,50.3
2022-10-02T10:15:25.493Z,49.5
2022-10-02T10:16:28.380Z,49.8
2022-10-02T10:17:30.372Z,51.6
2022-10-02T10:18:33.416Z,49.7
2022-10-02T10:19:36.590Z,49.4
2022-10-02T10:20:39.657Z,48.9
2022-10-02T10:21:42.311Z,48.6
2022-10-02T10:22:44.912Z,50.3
2022-10-02T10:23:47.579Z,50.7
2022-10-02T10:24:50.932Z,50.6
2022-10-02T10:25:53.772Z,50.4
2022-10-02T10:26:56.492Z,50.8
2022-10-02T10:27:59.246Z,50.9
2022-10-02T10:29:01.465Z,50
2022-10-02T10:30:03.893Z,51.3
2022-10-02T10:31:07.404Z,51.3
2022-10-02T10:32:09.926Z,50.3
2022-10-02T10:33:12.491Z,50.2
2022-10-02T10:34:16.051Z,48.6
2022-10-02T10:35:19.012Z,50.1
2022-10-02T10:36:22.132Z,49.6
2022-10-02T10:37:24.751Z,50.9
2022-10-02T10:38:27.851Z,51.8
2022-10-02T10:39:31.005Z,50.8
2022-10-02T10:40:33.451Z,48.3
2022-10-02T10:41:36.290Z,49
2022-10-02T10:42:56.309Z,50
2022-10-02T10:43:41.912Z,50.4
2022-10-02T10:44:44.811Z,50.5
2022-10-02T10:45:47.505Z,49.2
2022-10-02T10:46:49.544Z,48.5
2022-10-02T10:47:52.605Z,48
2022-10-02T10:48:55.284Z,46.9
2022-10-02T10:49:57.492Z,47
2022-10-02T10:50:59.975Z,45.8
2022-10-02T10:52:02.457Z,45.7
2022-10-02T10:53:04.653Z,47.9
2022-10-02T10:54:07.606Z,48
2022-10-02T10:55:10.571Z,49.9
2022-10-02T10:56:13.532Z,50.4
2022-10-02T10:57:16.555Z,47.7
2022-10-02T10:58:18.909Z,48
2022-10-02T10:59:25.105Z,47.1
2022-10-02T11:00:24.891Z,47.4
2022-10-02T11:01:27.979Z,46.1
2022-10-02T11:02:30.774Z,48.9
2022-10-02T11:03:33.741Z,47.5
2022-10-02T11:04:36.412Z,46.6
2022-10-02T11:05:38.646Z,45.9
2022-10-02T11:06:46.052Z,44.9
2022-10-02T11:07:45.391Z,44
2022-10-02T11:08:48.251Z,43.2
2022-10-02T11:09:51.175Z,43.6
2022-10-02T11:10:53.420Z,44.1
2022-10-02T11:11:55.179Z,44.6
2022-10-02T11:12:57.325Z,44.8
2022-10-02T11:13:58.471Z,45.3
2022-10-02T11:14:59.491Z,46.5
2022-10-02T11:16:00.561Z,46.5
2022-10-02T11:17:01.591Z,46
2022-10-02T11:18:02.552Z,45.2
2022-10-02T11:19:03.559Z,45.2
2022-10-02T11:20:04.583Z,45
2022-10-02T11:21:05.669Z,44.9
2022-10-02T11:22:07.639Z,45.2
2022-10-02T11:23:09.692Z,44.6
2022-10-02T11:24:11.544Z,44.9
2022-10-02T11:25:13.233Z,44.4
2022-10-02T11:26:13.714Z,43.6
2022-10-02T11:27:15.565Z,45.3
2022-10-02T11:28:16.793Z,46.8
2022-10-02T11:29:17.631Z,47.2
2022-10-02T11:30:18.611Z,46.1
2022-10-02T11:31:19.734Z,43.9
2022-10-02T11:32:21.631Z,44.5
2022-10-02T11:33:23.591Z,44.5
2022-10-02T11:34:25.682Z,44.9
2022-10-02T11:35:27.712Z,45.2
2022-10-02T11:36:29.698Z,46.3
2022-10-02T11:37:31.738Z,47.3
2022-10-02T11:38:34.028Z,46.1
2022-10-02T11:39:35.734Z,46.7
2022-10-02T11:40:37.547Z,46.8
2022-10-02T11:41:38.973Z,47
2022-10-02T11:42:39.759Z,47.2
2022-10-02T11:43:44.001Z,46.3
2022-10-02T11:44:42.712Z,46.5
2022-10-02T11:45:44.683Z,47.5
2022-10-02T11:46:46.591Z,47.7
2022-10-02T11:47:47.881Z,48.1
2022-10-02T11:48:49.668Z,47
2022-10-02T11:49:51.791Z,46.9
2022-10-02T11:50:53.829Z,47.1
2022-10-02T11:51:55.776Z,47.4
2022-10-02T11:52:57.592Z,47
2022-10-02T11:53:58.633Z,48.5
2022-10-02T11:54:59.693Z,47.9
2022-10-02T11:56:01.659Z,47.7
2022-10-02T11:57:03.789Z,48.4
2022-10-02T11:58:05.484Z,48.1
2022-10-02T11:59:06.538Z,47.9
2022-10-02T12:00:07.671Z,48.3
2022-10-02T12:01:09.835Z,47.7
2022-10-02T12:02:15.708Z,46.6
2022-10-02T12:03:13.710Z,46.4
2022-10-02T12:04:14.927Z,46.1
2022-10-02T12:05:16.564Z,46.1
2022-10-02T12:06:17.674Z,46.3
2022-10-02T12:07:19.513Z,47.8
2022-10-02T12:08:21.094Z,47.3
2022-10-02T12:09:22.700Z,47.3
2022-10-02T12:10:24.872Z,47.5
2022-10-02T12:11:26.472Z,47.9
2022-10-02T12:12:28.043Z,47.8
2022-10-02T12:13:29.401Z,48.6
2022-10-02T12:14:30.735Z,48.3
2022-10-02T12:15:32.619Z,48.1
2022-10-02T12:16:33.697Z,48.3
2022-10-02T12:17:35.700Z,48.7
2022-10-02T12:18:37.813Z,48.6
2022-10-02T12:19:39.711Z,47
2022-10-02T12:20:41.720Z,47.1
2022-10-02T12:21:43.572Z,47.5
2022-10-02T12:22:44.494Z,47.5
2022-10-02T12:23:45.611Z,47.4
2022-10-02T12:24:47.904Z,47.6
2022-10-02T12:25:47.668Z,47.7
2022-10-02T12:26:49.653Z,47.4
2022-10-02T12:27:51.663Z,47.2
2022-10-02T12:28:53.719Z,47.2
2022-10-02T12:29:55.524Z,47.4
2022-10-02T12:30:56.716Z,48.2
2022-10-02T12:31:58.700Z,48.6
2022-10-02T12:33:00.579Z,49
2022-10-02T12:34:01.575Z,49.6
2022-10-02T12:35:02.709Z,50.7
2022-10-02T12:36:04.573Z,51.7
2022-10-02T12:37:06.084Z,52.6
2022-10-02T12:38:07.514Z,53
2022-10-02T12:39:08.571Z,53.9
2022-10-02T12:40:09.612Z,54.6
2022-10-02T12:41:10.614Z,55
2022-10-02T12:42:11.555Z,54.9
2022-10-02T12:43:12.632Z,54.7
2022-10-02T12:44:13.768Z,54.7
2022-10-02T12:45:16.380Z,55.4
2022-10-02T12:46:18.136Z,55.5
2022-10-02T12:47:20.033Z,56.3
2022-10-02T12:48:22.981Z,57.5
2022-10-02T12:49:25.623Z,56.5
2022-10-02T12:50:27.743Z,56.5
2022-10-02T12:51:31.091Z,56.4
2022-10-02T12:52:32.982Z,57
2022-10-02T12:53:36.192Z,56.4
2022-10-02T12:54:42.693Z,56
2022-10-02T12:55:45.043Z,55.6
2022-10-02T12:56:49.396Z,55.5
2022-10-02T12:57:51.938Z,55.8
2022-10-02T12:58:55.413Z,56.2
2022-10-02T12:59:59.365Z,56.2
2022-10-02T13:01:01.489Z,56.2
2022-10-02T13:02:04.490Z,56.8
2022-10-02T13:03:08.478Z,56.7
2022-10-02T13:04:12.931Z,57.3
2022-10-02T13:05:15.432Z,57.5
2022-10-02T13:06:17.372Z,57.2
2022-10-02T13:07:19.087Z,55.9
2022-10-02T13:08:25.471Z,55.7
2022-10-02T13:09:29.928Z,55.4
2022-10-02T13:10:30.045Z,55
2022-10-02T13:11:32.119Z,54.9
2022-10-02T13:12:34.149Z,55.3
2022-10-02T13:13:37.632Z,55.8
2022-10-02T13:14:40.267Z,55.6
2022-10-02T13:15:42.375Z,54.7
2022-10-02T13:16:44.515Z,54.8
2022-10-02T13:17:46.942Z,55.1
2022-10-02T13:18:49.011Z,55.8
2022-10-02T13:19:50.992Z,55.3
2022-10-02T13:20:53.522Z,55.2
2022-10-02T13:21:55.060Z,54.7
2022-10-02T13:22:57.331Z,55.1
2022-10-02T13:24:02.778Z,55.2
2022-10-02T13:25:05.191Z,55.7
2022-10-02T13:26:06.891Z,55
2022-10-02T13:27:09.004Z,54.8
2022-10-02T13:28:10.999Z,55.3
2022-10-02T13:29:16.231Z,55.4
2022-10-02T13:30:18.079Z,55.7
2022-10-02T13:31:20.024Z,55.4
2022-10-02T13:32:22.940Z,54.9
2022-10-02T13:33:25.331Z,55.1
2022-10-02T13:34:27.440Z,54.5
2022-10-02T13:35:29.637Z,53.3
2022-10-02T13:36:36.311Z,53.5
2022-10-02T13:37:37.839Z,53.3
2022-10-02T13:38:40.709Z,52.8
2022-10-02T13:39:44.212Z,53.1
2022-10-02T13:40:46.537Z,52.6
2022-10-02T13:41:47.892Z,52.3
2022-10-02T13:42:50.726Z,52.4
2022-10-02T13:43:56.473Z,52.5
2022-10-02T13:44:55.324Z,52.8
2022-10-02T13:45:57.439Z,52.3
2022-10-02T13:46:58.993Z,52.9
2022-10-02T13:48:01.172Z,52.6
2022-10-02T13:49:03.253Z,52.9
2022-10-02T13:50:05.783Z,52.2
2022-10-02T13:51:08.848Z,50.5
2022-10-02T13:52:11.734Z,50.1
2022-10-02T13:53:13.802Z,50.1
2022-10-02T13:54:16.755Z,50
2022-10-02T13:55:18.680Z,49.6
2022-10-02T13:56:19.770Z,50.6
2022-10-02T13:57:21.655Z,51.2
2022-10-02T13:58:22.671Z,51.7
2022-10-02T13:59:23.772Z,51.6
2022-10-02T14:00:26.091Z,52.4
2022-10-02T14:01:27.852Z,52.7
2022-10-02T14:02:29.791Z,52.6
2022-10-02T14:03:31.814Z,53